Terminal Aerodrome Forecast
Issued by NWS Duluth, MN

Home | Current Version | Previous Version | Text Only | Print | Product List | Glossary On
Versions: 1 2 3 4 5 6 7 8 9 10 11 12 13 14 15 16 17 18 19
000
FTUS43 KDLH 030539
TAFINL
TAF
KINL 030539Z 0306/0406 16005KT P6SM SKC
     FM030800 17004KT 4SM BR SKC
      TEMPO 0309/0312 1 1/2SM BR
     FM031500 14009G16KT P6SM SKC
     FM040000 13005KT P6SM SKC
     FM040400 15003KT P6SM SCT015=

USA.gov is the U.S. government's official web portal to all federal, state and local government web resources and services.